East Texas Regional Airport
KGGG : now visible

Airfield :











YOU CAN JOIN US ON...

 
LOGIN :

Register | Disclaimer

   EN    FR    IT 

 









Legend :    VFR   Marginal VFR   IFR   Intensive IFR   Very Intensive IFR
Visi :
Ceiling :
>= 8 km
>= 3000ft
5 to 8 km
1000 to 3000 ft
1500m to 5 km
500 to 1000 ft
800 to 1500m
200 to 500 ft
< 800m
< 200 ft
Symbols :   Thunderstorms  Fog  Heavy snow  Heavy precipitations  Wind > 20 kt






- Airport Elevation : 365 ft
- IATA code : GGG


KGGG - East Texas Regional

CURRENT METAR :
  • 231753Z 19008KT 10SM BKN035 31/23 A3014 RMK AO2 SLP199 T03110228 10311 20228 58009

EXPIRED METARs :
  • 231653Z COR 23006KT 10SM BKN032 31/23 A3016 RMK AO2 SLP206 T03060228
  • 231553Z 23007KT 10SM SCT027 29/23 A3017 RMK AO2 SLP209 T02940228
  • 231541Z 23011KT 10SM BKN025 BKN031 29/23 A3017 RMK AO2 T02940228

TAF KGGG
Valid from the 23 at 18:00 until the 24 at 18:00 UTC


231739Z 2318/2418 23007KT P6SM BKN035
FM240100 17004KT P6SM FEW250
FM241100 20004KT P6SM SCT013
FM241500 23007KT P6SM SCT025 SCT035
KZFW FIR / North America



MET'MAP, your aeronautical weather chart ! - Copyright ORBIFLY December 2007 - Disclaimer

ORBIFLY MET'MAP TEAM :

Programming & Development : Alexandra Zaïnal
Concept & original design : Baudouin d'Aumeries
Assistance for programming : Marc-Olivier Méhu
Technical & hardware support : Manuel Goepfert

Contact : metmap@orbifly.com




SOURCES & CREDITS :

   NOAA       Earth
Advisory